This is the latest recevied weather packets stored in our database for station/object W9ESR. If no packets are shown the sender has not sent any weather packets the latest 1 day(s).
| Time | Temp. | Humidity | Pressure | Rain* | Wind** | Luminosity | Snow |
|---|---|---|---|---|---|---|---|
| 1778072029 | 6.67° C | 57% | - | 0 mm | - | - | - |
| 1778071727 | 6.11° C | 60% | - | 0 mm | - | - | - |
| 1778069608 | 4.44° C | 62% | - | 0 mm | - | - | - |
| 1778068096 | 4.44° C | 59% | - | 0 mm | - | - | - |
| 1778067794 | 5° C | 59% | - | 0 mm | - | - | - |
| 1778067492 | 5° C | 58% | - | 0 mm | - | - | - |
| 1778066583 | 5° C | 57% | - | 0 mm | - | - | - |
| 1778066280 | 5° C | 57% | - | 0 mm | - | - | - |
| 1778065069 | 5° C | 57% | - | 0 mm | - | - | - |
| 1778064766 | 5° C | 57% | - | 0 mm | - | - | - |
| 1778063858 | 5.56° C | 55% | - | 0 mm | - | - | - |
| 1778062951 | 6.11° C | 54% | - | 0 mm | - | - | - |
| 1778062042 | 5.56° C | 55% | - | 0 mm | - | - | - |
| 1778061740 | 5.56° C | 56% | - | 0 mm | - | - | - |
| 1778060832 | 6.11° C | 55% | - | 0 mm | - | - | - |
| 1778060530 | 6.11° C | 55% | - | 0 mm | - | - | - |
| 1778059925 | 6.11° C | 54% | - | 0 mm | - | - | - |
| 1778059320 | 6.11° C | 55% | - | 0 mm | - | - | - |
| 1778059018 | 6.11° C | 54% | - | 0 mm | - | - | - |
| 1778058715 | 6.67° C | 54% | - | 0 mm | - | - | - |
| 1778058413 | 6.67° C | 53% | - | 0 mm | - | - | - |
| 1778058109 | 6.67° C | 54% | - | 0 mm | - | - | - |
| 1778057806 | 6.67° C | 54% | - | 0 mm | - | - | - |
| 1778057502 | 6.67° C | 54% | - | 0 mm | - | - | - |
| 1778056896 | 6.67° C | 54% | - | 0 mm | - | - | - |
* Rain latest hour (hover to see other rain measurements)
** Current wind speed in m/s (hover to see current wind gust speed)